Time;durP1;ratioP1;P1;durP2;ratioP2;P2;SDS_P1;SDS_P2;PMS_P1;PMS_P2;Temp;Humidity;BMP_temperature;BMP_pressure;BME280_temperature;BME280_humidity;BME280_pressure;Samples;Min_cycle;Max_cycle;Signal;HPM_P1;HPM_P2
2022/07/12 00:00:32;;;;;;;1.60;0.80;;;;;;;;;;5101441;28;20606;-59
2022/07/12 00:03:00;;;;;;;0.93;0.70;;;;;;;;;;5100402;28;20204;-59
2022/07/12 00:05:28;;;;;;;0.80;0.70;;;;;;;;;;5109119;28;20204;-59
2022/07/12 00:07:56;;;;;;;1.10;1.00;;;;;;;;;;5110014;28;20199;-59
2022/07/12 00:10:24;;;;;;;1.20;1.10;;;;;;;;;;5105578;28;20569;-59
2022/07/12 00:12:52;;;;;;;1.17;1.07;;;;;;;;;;5109811;28;20198;-59
2022/07/12 00:15:22;;;;;;;1.23;1.00;;;;;;;;;;5111030;28;20303;-59
2022/07/12 00:17:50;;;;;;;2.90;0.93;;;;;;;;;;5110488;28;20196;-59
2022/07/12 00:20:19;;;;;;;0.80;0.80;;;;;;;;;;5108776;28;20214;-59
2022/07/12 00:22:47;;;;;;;2.40;0.80;;;;;;;;;;5109980;28;20237;-59
2022/07/12 00:25:16;;;;;;;3.73;0.90;;;;;;;;;;5110774;28;20273;-59
2022/07/12 00:27:44;;;;;;;2.07;1.10;;;;;;;;;;5106566;28;20289;-59
2022/07/12 00:30:12;;;;;;;2.93;1.00;;;;;;;;;;5109533;28;20255;-59
2022/07/12 00:32:41;;;;;;;2.00;1.00;;;;;;;;;;5110553;28;20199;-59
2022/07/12 00:35:10;;;;;;;1.90;0.90;;;;;;;;;;5109425;28;20235;-59
2022/07/12 00:37:38;;;;;;;0.93;0.90;;;;;;;;;;5105372;28;20211;-59
2022/07/12 00:40:08;;;;;;;0.93;0.93;;;;;;;;;;5108872;28;20197;-59
2022/07/12 00:42:36;;;;;;;2.27;1.27;;;;;;;;;;5109203;27;20208;-59
2022/07/12 00:45:05;;;;;;;1.20;0.80;;;;;;;;;;5105599;28;20222;-59
2022/07/12 00:47:36;;;;;;;1.17;1.00;;;;;;;;;;5109111;28;20639;-59
2022/07/12 00:50:07;;;;;;;2.90;1.03;;;;;;;;;;5109818;28;20234;-59
2022/07/12 00:52:36;;;;;;;1.00;1.00;;;;;;;;;;5109825;28;20260;-59
2022/07/12 00:55:04;;;;;;;2.03;1.20;;;;;;;;;;5108098;28;20586;-59
2022/07/12 00:57:32;;;;;;;1.10;1.03;;;;;;;;;;5109842;28;20215;-59
2022/07/12 01:00:01;;;;;;;1.60;1.47;;;;;;;;;;5108114;28;20231;-59
2022/07/12 01:02:29;;;;;;;2.17;0.93;;;;;;;;;;5109364;28;20204;-59
2022/07/12 01:04:57;;;;;;;1.37;1.10;;;;;;;;;;5109347;28;20723;-59
2022/07/12 01:07:27;;;;;;;0.90;0.90;;;;;;;;;;5106099;28;20727;-59
2022/07/12 01:09:55;;;;;;;0.77;0.77;;;;;;;;;;5108377;28;20252;-59
2022/07/12 01:12:24;;;;;;;1.50;1.00;;;;;;;;;;5104066;28;20227;-59
2022/07/12 01:14:53;;;;;;;1.40;0.90;;;;;;;;;;5108194;28;20218;-59
2022/07/12 01:17:21;;;;;;;1.97;1.00;;;;;;;;;;5109205;28;20193;-59
2022/07/12 01:19:49;;;;;;;2.67;0.93;;;;;;;;;;5099191;28;20238;-59
2022/07/12 01:22:18;;;;;;;0.80;0.80;;;;;;;;;;5099628;28;20211;-59
2022/07/12 01:24:47;;;;;;;1.00;0.90;;;;;;;;;;5099065;28;20280;-59
2022/07/12 01:27:15;;;;;;;2.43;0.90;;;;;;;;;;5099165;28;20216;-59
2022/07/12 01:29:43;;;;;;;2.07;0.70;;;;;;;;;;5099181;28;20265;-59
2022/07/12 01:32:26;;;;;;;1.13;0.97;;;;;;;;;;5099251;28;20240;-59
2022/07/12 01:34:56;;;;;;;1.33;1.23;;;;;;;;;;5099041;28;20230;-59
2022/07/12 01:37:25;;;;;;;0.80;0.80;;;;;;;;;;5098983;28;20278;-59
2022/07/12 01:39:55;;;;;;;1.27;0.93;;;;;;;;;;5099159;28;20204;-59
2022/07/12 01:42:24;;;;;;;2.20;1.07;;;;;;;;;;5099096;28;20234;-59
2022/07/12 01:44:53;;;;;;;2.77;1.20;;;;;;;;;;5098985;28;20258;-59
2022/07/12 01:47:21;;;;;;;0.90;0.90;;;;;;;;;;5099097;28;20210;-59
2022/07/12 01:49:49;;;;;;;1.07;1.00;;;;;;;;;;5098267;28;20235;-59
2022/07/12 01:52:18;;;;;;;1.27;0.80;;;;;;;;;;5098886;28;20238;-59
2022/07/12 01:54:46;;;;;;;1.30;1.20;;;;;;;;;;5098723;28;20276;-59
2022/07/12 01:57:15;;;;;;;1.50;1.10;;;;;;;;;;5098852;28;20203;-59
2022/07/12 01:59:44;;;;;;;2.07;1.10;;;;;;;;;;5098775;28;20233;-59
2022/07/12 02:02:12;;;;;;;1.10;1.10;;;;;;;;;;5098778;28;20220;-59
2022/07/12 02:04:40;;;;;;;1.57;1.10;;;;;;;;;;5098574;28;20228;-59
2022/07/12 02:07:08;;;;;;;3.37;1.10;;;;;;;;;;5098602;28;20227;-59
2022/07/12 02:09:36;;;;;;;1.47;1.00;;;;;;;;;;5098662;28;20268;-59
2022/07/12 02:12:04;;;;;;;1.00;0.90;;;;;;;;;;5097431;28;20205;-59
2022/07/12 02:14:34;;;;;;;1.60;1.17;;;;;;;;;;5098573;28;20256;-59
2022/07/12 02:17:02;;;;;;;2.03;0.97;;;;;;;;;;5098364;28;20744;-58
2022/07/12 02:19:30;;;;;;;1.00;1.00;;;;;;;;;;5098258;28;20244;-58
2022/07/12 02:21:58;;;;;;;1.47;1.00;;;;;;;;;;5098594;28;20207;-59
2022/07/12 02:24:26;;;;;;;1.23;1.13;;;;;;;;;;5098049;28;20260;-60
2022/07/12 02:26:54;;;;;;;4.00;1.30;;;;;;;;;;5098232;28;20258;-60
2022/07/12 02:29:22;;;;;;;1.03;1.00;;;;;;;;;;5098373;28;20238;-61
2022/07/12 02:31:52;;;;;;;1.50;0.93;;;;;;;;;;5098271;28;20239;-60
2022/07/12 02:34:19;;;;;;;1.30;1.20;;;;;;;;;;5097736;28;20254;-60
2022/07/12 02:36:48;;;;;;;2.43;1.17;;;;;;;;;;5097745;28;20673;-60
2022/07/12 02:39:16;;;;;;;0.80;0.80;;;;;;;;;;5098267;28;20238;-61
2022/07/12 02:41:44;;;;;;;2.20;1.27;;;;;;;;;;5097970;28;20203;-60
2022/07/12 02:44:12;;;;;;;2.37;1.30;;;;;;;;;;5098115;28;20263;-60
2022/07/12 02:46:39;;;;;;;2.97;1.50;;;;;;;;;;5097960;28;20240;-60
2022/07/12 02:49:09;;;;;;;4.03;1.20;;;;;;;;;;5097428;28;20236;-60
2022/07/12 02:51:37;;;;;;;3.37;1.10;;;;;;;;;;5097729;28;20322;-61
2022/07/12 02:54:05;;;;;;;1.07;1.03;;;;;;;;;;5097665;28;20280;-60
2022/07/12 02:56:33;;;;;;;2.43;1.00;;;;;;;;;;5097901;28;20246;-60
2022/07/12 02:59:01;;;;;;;2.70;1.27;;;;;;;;;;5098036;28;20242;-58
2022/07/12 03:01:29;;;;;;;1.00;1.00;;;;;;;;;;5098061;28;20210;-59
2022/07/12 03:03:57;;;;;;;1.30;1.20;;;;;;;;;;5097514;28;20232;-58
2022/07/12 03:06:26;;;;;;;2.83;1.13;;;;;;;;;;5097954;28;20241;-59
2022/07/12 03:08:54;;;;;;;0.90;0.90;;;;;;;;;;5097635;28;20238;-59
2022/07/12 03:11:22;;;;;;;1.63;1.10;;;;;;;;;;5097496;28;20663;-58
2022/07/12 03:13:50;;;;;;;1.97;1.00;;;;;;;;;;5097521;28;20671;-58
2022/07/12 03:16:18;;;;;;;1.20;0.93;;;;;;;;;;5088834;28;20229;-58
2022/07/12 03:18:46;;;;;;;4.03;0.93;;;;;;;;;;5089175;28;20211;-59
2022/07/12 03:21:14;;;;;;;1.43;1.20;;;;;;;;;;5097461;28;20730;-58
2022/07/12 03:23:44;;;;;;;1.20;0.87;;;;;;;;;;5100247;28;20589;-58
2022/07/12 03:26:12;;;;;;;1.80;1.07;;;;;;;;;;5101001;28;20631;-58
2022/07/12 03:28:40;;;;;;;1.00;1.00;;;;;;;;;;5101723;28;20234;-58
2022/07/12 03:31:08;;;;;;;1.00;1.00;;;;;;;;;;5101693;28;20232;-58
2022/07/12 03:33:37;;;;;;;0.93;0.90;;;;;;;;;;5100919;28;20233;-58
2022/07/12 03:36:08;;;;;;;1.73;1.40;;;;;;;;;;5101724;28;20242;-59
2022/07/12 03:38:36;;;;;;;4.07;1.20;;;;;;;;;;5101645;28;20202;-58
2022/07/12 03:41:06;;;;;;;1.90;1.43;;;;;;;;;;5101499;28;20237;-58
2022/07/12 03:43:34;;;;;;;1.63;1.20;;;;;;;;;;5101039;28;20355;-58
2022/07/12 03:46:02;;;;;;;2.53;1.13;;;;;;;;;;5100838;28;20640;-58
2022/07/12 03:48:30;;;;;;;3.37;1.37;;;;;;;;;;5098958;28;20263;-58
2022/07/12 03:50:58;;;;;;;1.90;1.17;;;;;;;;;;5099205;28;20233;-58
2022/07/12 03:53:26;;;;;;;1.10;1.10;;;;;;;;;;5099260;28;20262;-58
2022/07/12 03:55:54;;;;;;;0.97;0.97;;;;;;;;;;5098575;28;20231;-58
2022/07/12 03:58:23;;;;;;;3.53;1.30;;;;;;;;;;5099645;28;20667;-58
2022/07/12 04:00:51;;;;;;;3.03;1.30;;;;;;;;;;5100364;28;20293;-58
2022/07/12 04:03:19;;;;;;;2.27;1.13;;;;;;;;;;5101772;28;20638;-58
2022/07/12 04:05:47;;;;;;;1.23;1.10;;;;;;;;;;5106935;28;20195;-59
2022/07/12 04:08:16;;;;;;;1.50;1.40;;;;;;;;;;5102380;28;20227;-58
2022/07/12 04:10:44;;;;;;;2.17;1.30;;;;;;;;;;5102761;28;20220;-58
2022/07/12 04:13:12;;;;;;;2.43;1.20;;;;;;;;;;5100604;28;20644;-58
2022/07/12 04:15:42;;;;;;;1.37;1.27;;;;;;;;;;5100644;28;20587;-58
2022/07/12 04:18:10;;;;;;;1.30;1.30;;;;;;;;;;5100682;28;20208;-58
2022/07/12 04:20:40;;;;;;;2.20;1.10;;;;;;;;;;5100630;28;20266;-58
2022/07/12 04:23:09;;;;;;;1.50;1.40;;;;;;;;;;5100458;28;20337;-57
2022/07/12 04:25:37;;;;;;;2.93;1.20;;;;;;;;;;5101671;28;20199;-58
2022/07/12 04:28:05;;;;;;;1.07;1.07;;;;;;;;;;5102251;28;20230;-58
2022/07/12 04:30:33;;;;;;;4.00;1.30;;;;;;;;;;5101284;28;20211;-58
2022/07/12 04:33:02;;;;;;;1.40;1.30;;;;;;;;;;5101162;28;20216;-58
2022/07/12 04:35:30;;;;;;;5.57;1.47;;;;;;;;;;5100653;28;20566;-58
2022/07/12 04:37:58;;;;;;;1.63;1.30;;;;;;;;;;5099256;28;20640;-59
2022/07/12 04:40:27;;;;;;;1.90;1.40;;;;;;;;;;5102688;28;20202;-59
2022/07/12 04:42:55;;;;;;;1.20;1.10;;;;;;;;;;5100010;28;20193;-58
2022/07/12 04:45:23;;;;;;;5.23;1.33;;;;;;;;;;5108613;28;20199;-57
2022/07/12 04:47:51;;;;;;;2.03;1.43;;;;;;;;;;5100641;28;20200;-58
2022/07/12 04:50:20;;;;;;;1.30;1.20;;;;;;;;;;5098330;28;20270;-59
2022/07/12 04:52:48;;;;;;;3.77;1.20;;;;;;;;;;5104538;28;20261;-58
2022/07/12 04:55:17;;;;;;;3.37;1.23;;;;;;;;;;5096922;28;20216;-59
2022/07/12 04:57:45;;;;;;;2.20;1.40;;;;;;;;;;5098432;28;20567;-58
2022/07/12 05:00:13;;;;;;;1.70;1.40;;;;;;;;;;5099832;28;20239;-58
2022/07/12 05:02:41;;;;;;;1.53;1.33;;;;;;;;;;5099414;28;20233;-58
2022/07/12 05:05:09;;;;;;;1.40;1.30;;;;;;;;;;5099388;28;20229;-58
2022/07/12 05:07:39;;;;;;;1.60;1.50;;;;;;;;;;5107432;28;20201;-57
2022/07/12 05:10:13;;;;;;;2.40;1.40;;;;;;;;;;5119059;28;20206;-58
2022/07/12 05:12:41;;;;;;;4.00;1.50;;;;;;;;;;5118219;28;20985;-57
2022/07/12 05:15:09;;;;;;;3.20;1.20;;;;;;;;;;5119054;28;20258;-57
2022/07/12 05:17:37;;;;;;;2.13;1.33;;;;;;;;;;5120008;28;20243;-59
2022/07/12 05:20:06;;;;;;;3.30;1.50;;;;;;;;;;5119909;28;20238;-60
2022/07/12 05:22:34;;;;;;;1.70;1.47;;;;;;;;;;5119676;28;20208;-59
2022/07/12 05:25:04;;;;;;;1.60;1.27;;;;;;;;;;5099168;28;20266;-60
2022/07/12 05:27:32;;;;;;;3.30;1.47;;;;;;;;;;5098908;28;20217;-59
2022/07/12 05:30:00;;;;;;;1.63;1.50;;;;;;;;;;5097544;28;20233;-60
2022/07/12 05:32:28;;;;;;;5.30;1.60;;;;;;;;;;5097276;28;20230;-60
2022/07/12 05:34:56;;;;;;;1.20;1.10;;;;;;;;;;5096899;28;20600;-60
2022/07/12 05:37:25;;;;;;;3.30;1.90;;;;;;;;;;5098837;28;20239;-60
2022/07/12 05:39:53;;;;;;;1.43;1.10;;;;;;;;;;5098679;28;20685;-60
2022/07/12 05:42:22;;;;;;;1.40;1.30;;;;;;;;;;5098810;28;20204;-59
2022/07/12 05:44:50;;;;;;;1.70;1.60;;;;;;;;;;5098682;28;20710;-60
2022/07/12 05:47:18;;;;;;;1.70;1.60;;;;;;;;;;5083948;28;20634;-60
2022/07/12 05:49:46;;;;;;;2.43;1.20;;;;;;;;;;5097543;28;20304;-60
2022/07/12 05:55:11;;;;;;;3.37;3.10;;;;;;;;;;5087776;28;20210;-60
2022/07/12 05:57:40;;;;;;;4.80;2.40;;;;;;;;;;5098138;28;20234;-60
2022/07/12 06:00:09;;;;;;;4.10;1.93;;;;;;;;;;5098803;28;20217;-60
2022/07/12 06:02:37;;;;;;;2.63;1.40;;;;;;;;;;5098535;28;20206;-60
2022/07/12 06:05:05;;;;;;;2.43;1.40;;;;;;;;;;5098522;28;20233;-57
2022/07/12 06:07:34;;;;;;;3.73;1.23;;;;;;;;;;5099099;28;20285;-60
2022/07/12 06:10:01;;;;;;;2.30;1.40;;;;;;;;;;5098464;28;20240;-60
2022/07/12 06:12:29;;;;;;;3.17;1.57;;;;;;;;;;5098404;28;20261;-60
2022/07/12 06:14:59;;;;;;;1.50;1.40;;;;;;;;;;5098546;28;20226;-60
2022/07/12 06:17:27;;;;;;;2.10;1.50;;;;;;;;;;5096990;28;20236;-60
2022/07/12 06:19:55;;;;;;;2.03;1.30;;;;;;;;;;5096295;28;20209;-59
2022/07/12 06:22:23;;;;;;;1.40;1.30;;;;;;;;;;5096276;28;20708;-60
2022/07/12 06:24:51;;;;;;;1.73;1.60;;;;;;;;;;5096250;28;20264;-59
2022/07/12 06:27:18;;;;;;;3.80;1.50;;;;;;;;;;5096232;28;20240;-60
2022/07/12 06:29:47;;;;;;;2.40;1.37;;;;;;;;;;5096383;28;20239;-59
2022/07/12 06:32:17;;;;;;;3.40;1.53;;;;;;;;;;5097322;28;20233;-60
2022/07/12 06:34:45;;;;;;;1.27;1.13;;;;;;;;;;5097912;28;20271;-60
2022/07/12 06:37:14;;;;;;;7.50;6.90;;;;;;;;;;5097986;28;20220;-60
2022/07/12 06:39:43;;;;;;;1.60;1.50;;;;;;;;;;5097597;28;20251;-58
2022/07/12 06:42:11;;;;;;;6.67;3.40;;;;;;;;;;5099470;28;20191;-59
2022/07/12 06:44:39;;;;;;;3.57;2.50;;;;;;;;;;5097256;28;20245;-59
2022/07/12 06:47:07;;;;;;;1.87;1.70;;;;;;;;;;5098960;28;20204;-59
2022/07/12 06:49:37;;;;;;;1.50;1.40;;;;;;;;;;5098144;28;20262;-59
2022/07/12 06:52:05;;;;;;;1.53;1.43;;;;;;;;;;5098878;28;20227;-59
2022/07/12 06:54:33;;;;;;;2.70;1.60;;;;;;;;;;5097270;28;20277;-59
2022/07/12 06:57:01;;;;;;;1.50;1.40;;;;;;;;;;5096647;28;20235;-59
2022/07/12 06:59:29;;;;;;;1.83;1.40;;;;;;;;;;5097710;28;20200;-59
2022/07/12 07:01:57;;;;;;;1.93;1.50;;;;;;;;;;5108786;28;20239;-59
2022/07/12 07:04:26;;;;;;;3.30;1.50;;;;;;;;;;5104304;28;20228;-59
2022/07/12 07:06:55;;;;;;;1.70;1.60;;;;;;;;;;5107178;28;20220;-59
2022/07/12 07:09:23;;;;;;;2.10;1.93;;;;;;;;;;5104092;28;20198;-59
2022/07/12 07:11:52;;;;;;;2.50;1.57;;;;;;;;;;5107371;28;20277;-59
2022/07/12 07:14:20;;;;;;;1.80;1.37;;;;;;;;;;5100740;28;20294;-59
2022/07/12 07:16:48;;;;;;;1.80;1.40;;;;;;;;;;5098350;28;20225;-59
2022/07/12 07:19:16;;;;;;;1.40;1.33;;;;;;;;;;5094342;28;20224;-59
2022/07/12 07:21:49;;;;;;;6.10;1.90;;;;;;;;;;5097567;28;20197;-60
2022/07/12 07:24:19;;;;;;;3.90;1.40;;;;;;;;;;5095704;28;20224;-60
2022/07/12 07:26:47;;;;;;;2.93;1.53;;;;;;;;;;5106633;28;20234;-60
2022/07/12 07:32:06;;;;;;;1.67;1.57;;;;;;;;;;5117564;28;20202;-60
2022/07/12 07:34:34;;;;;;;3.10;1.40;;;;;;;;;;5108136;28;20222;-60
2022/07/12 07:37:02;;;;;;;1.70;1.60;;;;;;;;;;5097009;28;20568;-60
2022/07/12 07:39:32;;;;;;;467.30;349.77;;;;;;;;;;5098501;28;20259;-60
2022/07/12 07:42:00;;;;;;;202.93;153.83;;;;;;;;;;5094357;28;20280;-61
2022/07/12 07:44:28;;;;;;;18.93;8.27;;;;;;;;;;5096977;28;20254;-60
2022/07/12 07:47:00;;;;;;;19.10;5.23;;;;;;;;;;5097096;28;20571;-61
2022/07/12 07:49:29;;;;;;;3.60;2.47;;;;;;;;;;5092639;28;20313;-61
2022/07/12 07:51:57;;;;;;;4.23;2.33;;;;;;;;;;5096817;28;20209;-60
2022/07/12 07:54:25;;;;;;;3.00;2.13;;;;;;;;;;5088598;28;20270;-59
2022/07/12 07:56:55;;;;;;;2.77;1.60;;;;;;;;;;5096442;28;20634;-59
2022/07/12 07:59:29;;;;;;;3.17;2.07;;;;;;;;;;5088854;28;20203;-59
2022/07/12 08:01:57;;;;;;;4.90;2.40;;;;;;;;;;5096005;28;20204;-60
2022/07/12 08:04:25;;;;;;;3.53;2.40;;;;;;;;;;5096077;28;20803;-59
2022/07/12 08:06:53;;;;;;;1.60;1.50;;;;;;;;;;5096615;28;20208;-59
2022/07/12 08:09:21;;;;;;;2.43;1.70;;;;;;;;;;5117978;28;20201;-60
2022/07/12 08:11:49;;;;;;;2.93;1.77;;;;;;;;;;5120627;28;20664;-60
2022/07/12 08:14:19;;;;;;;4.77;1.70;;;;;;;;;;5099538;28;20745;-60
2022/07/12 08:16:47;;;;;;;1.70;1.53;;;;;;;;;;5107617;28;20220;-60
2022/07/12 08:19:16;;;;;;;3.30;2.00;;;;;;;;;;5104709;28;20274;-59
2022/07/12 08:21:44;;;;;;;2.93;1.50;;;;;;;;;;5099715;28;20664;-60
2022/07/12 08:24:12;;;;;;;2.33;1.60;;;;;;;;;;5099012;28;20217;-59
2022/07/12 08:26:40;;;;;;;4.53;1.83;;;;;;;;;;5099981;28;20201;-60
2022/07/12 08:29:08;;;;;;;1.80;1.67;;;;;;;;;;5100350;28;20228;-59
2022/07/12 08:31:38;;;;;;;3.23;1.93;;;;;;;;;;5102596;28;20224;-60
2022/07/12 08:34:06;;;;;;;3.67;1.70;;;;;;;;;;5099574;28;20289;-60
2022/07/12 08:36:34;;;;;;;2.93;1.67;;;;;;;;;;5099203;28;20198;-59
2022/07/12 08:39:03;;;;;;;2.73;1.50;;;;;;;;;;5100647;28;20202;-59
2022/07/12 08:41:31;;;;;;;4.17;2.07;;;;;;;;;;5099226;28;20247;-59
2022/07/12 08:43:59;;;;;;;5.27;1.50;;;;;;;;;;5100950;28;20216;-59
2022/07/12 08:46:27;;;;;;;2.23;1.80;;;;;;;;;;5099541;28;20231;-60
2022/07/12 08:48:56;;;;;;;4.63;1.57;;;;;;;;;;5099575;28;20242;-60
2022/07/12 08:51:24;;;;;;;2.87;1.60;;;;;;;;;;5099775;28;20669;-59
2022/07/12 08:54:06;;;;;;;3.20;1.83;;;;;;;;;;5102883;28;20260;-59
2022/07/12 08:56:35;;;;;;;4.30;1.60;;;;;;;;;;5096745;28;20202;-59
2022/07/12 08:59:12;;;;;;;1.93;1.53;;;;;;;;;;5096875;28;20228;-59
2022/07/12 09:01:41;;;;;;;4.87;1.77;;;;;;;;;;5099064;28;20243;-59
2022/07/12 09:04:15;;;;;;;2.27;1.40;;;;;;;;;;5098933;28;20219;-59
2022/07/12 09:06:43;;;;;;;2.40;1.60;;;;;;;;;;5118316;28;20207;-59
2022/07/12 09:09:11;;;;;;;1.93;1.67;;;;;;;;;;5119782;28;20206;-59
2022/07/12 09:11:40;;;;;;;2.83;1.43;;;;;;;;;;5113910;28;20203;-58
2022/07/12 09:14:08;;;;;;;3.67;1.80;;;;;;;;;;5097191;28;20225;-59
2022/07/12 09:16:36;;;;;;;4.33;1.50;;;;;;;;;;5099850;28;20251;-59
2022/07/12 09:19:16;;;;;;;2.30;2.03;;;;;;;;;;5100284;28;20199;-59
2022/07/12 09:21:48;;;;;;;1.90;1.67;;;;;;;;;;5092326;28;20202;-59
2022/07/12 09:24:16;;;;;;;1.93;1.50;;;;;;;;;;5097209;28;20716;-59
2022/07/12 09:26:44;;;;;;;2.50;1.53;;;;;;;;;;5098068;28;20238;-59
2022/07/12 09:29:13;;;;;;;5.83;3.87;;;;;;;;;;5098497;28;20208;-59
2022/07/12 09:37:17;;;;;;;2.60;1.30;;;;;;;;;;5098150;28;20198;-61
2022/07/12 09:39:45;;;;;;;2.40;1.27;;;;;;;;;;5098659;28;20226;-61
2022/07/12 09:42:13;;;;;;;3.63;1.30;;;;;;;;;;5097571;28;20212;-61
2022/07/12 09:44:42;;;;;;;4.40;1.87;;;;;;;;;;5098717;28;20267;-61
2022/07/12 09:47:12;;;;;;;5.83;1.43;;;;;;;;;;5097873;28;20254;-60
2022/07/12 09:49:41;;;;;;;2.00;1.47;;;;;;;;;;5098295;28;20244;-60
2022/07/12 09:52:11;;;;;;;4.73;1.50;;;;;;;;;;5098839;28;20236;-61
2022/07/12 09:54:41;;;;;;;1.40;1.20;;;;;;;;;;5093672;28;20235;-61
2022/07/12 09:57:14;;;;;;;2.67;1.47;;;;;;;;;;5086872;28;20247;-61
2022/07/12 09:59:42;;;;;;;2.03;1.50;;;;;;;;;;5098330;28;20210;-61
2022/07/12 10:02:15;;;;;;;1.50;1.40;;;;;;;;;;5098730;28;20206;-61
2022/07/12 10:04:46;;;;;;;2.40;1.70;;;;;;;;;;5094967;28;20300;-61
2022/07/12 10:07:15;;;;;;;1.57;1.40;;;;;;;;;;5098700;28;20218;-61
2022/07/12 10:09:44;;;;;;;3.37;1.60;;;;;;;;;;5098397;28;20232;-61
2022/07/12 10:12:13;;;;;;;3.00;1.70;;;;;;;;;;5098289;28;20208;-61
2022/07/12 10:14:42;;;;;;;5.90;1.80;;;;;;;;;;5098169;28;20675;-61
2022/07/12 10:17:12;;;;;;;2.22;2.00;;;;;;;;;;5098491;28;20237;-61
2022/07/12 10:19:40;;;;;;;5.75;1.85;;;;;;;;;;5098438;28;20205;-61
2022/07/12 10:22:19;;;;;;;3.33;1.75;;;;;;;;;;5087583;28;20267;-61
2022/07/12 10:24:53;;;;;;;3.28;1.77;;;;;;;;;;5097965;28;20247;-61
2022/07/12 10:27:28;;;;;;;1.40;1.30;;;;;;;;;;5096187;28;20589;-61
2022/07/12 10:30:13;;;;;;;1.70;1.60;;;;;;;;;;5096426;28;20201;-61
2022/07/12 10:32:42;;;;;;;1.50;1.40;;;;;;;;;;5095521;28;20231;-61
2022/07/12 10:35:13;;;;;;;6.45;1.95;;;;;;;;;;5096297;28;20248;-61
2022/07/12 10:37:42;;;;;;;3.67;1.67;;;;;;;;;;5085236;28;20197;-61
2022/07/12 10:40:14;;;;;;;1.75;1.60;;;;;;;;;;5093232;28;20208;-61
2022/07/12 10:43:02;;;;;;;3.03;1.35;;;;;;;;;;5097973;28;20203;-61
2022/07/12 10:45:31;;;;;;;4.85;1.50;;;;;;;;;;5097678;28;20201;-61
2022/07/12 10:48:00;;;;;;;1.40;1.30;;;;;;;;;;5097264;28;20208;-61
2022/07/12 10:50:48;;;;;;;3.75;1.70;;;;;;;;;;5097475;28;20243;-61
2022/07/12 10:53:26;;;;;;;4.20;1.67;;;;;;;;;;5097765;28;20259;-61
2022/07/12 10:56:18;;;;;;;1.73;1.63;;;;;;;;;;5096954;28;20282;-61
2022/07/12 10:58:56;;;;;;;4.55;1.70;;;;;;;;;;5097757;28;20210;-61
2022/07/12 11:01:25;;;;;;;4.47;1.77;;;;;;;;;;5097571;28;20272;-61
2022/07/12 11:03:55;;;;;;;5.22;1.70;;;;;;;;;;5097232;28;20827;-61
2022/07/12 11:06:23;;;;;;;1.75;1.38;;;;;;;;;;5097466;28;20704;-61
2022/07/12 11:08:57;;;;;;;3.58;1.65;;;;;;;;;;5097726;28;20205;-61
2022/07/12 11:11:26;;;;;;;1.77;1.55;;;;;;;;;;5097665;28;20206;-61
2022/07/12 11:13:54;;;;;;;4.63;1.52;;;;;;;;;;5089641;28;20282;-61
2022/07/12 11:16:23;;;;;;;3.05;1.35;;;;;;;;;;5097432;28;20628;-61
2022/07/12 11:18:52;;;;;;;1.65;1.55;;;;;;;;;;5097376;28;20213;-61
2022/07/12 11:21:20;;;;;;;1.58;1.48;;;;;;;;;;5097691;28;20209;-61
2022/07/12 11:23:49;;;;;;;2.17;1.23;;;;;;;;;;5101410;28;20256;-61
2022/07/12 11:26:18;;;;;;;2.45;1.23;;;;;;;;;;5097288;28;20233;-61
2022/07/12 11:28:47;;;;;;;2.47;1.30;;;;;;;;;;5096623;28;20237;-61
2022/07/12 11:31:15;;;;;;;3.63;1.58;;;;;;;;;;5084216;28;20226;-61
2022/07/12 11:33:45;;;;;;;3.55;1.55;;;;;;;;;;5097142;28;20314;-61
2022/07/12 11:36:13;;;;;;;1.13;1.05;;;;;;;;;;5097379;28;20278;-61
2022/07/12 11:38:42;;;;;;;2.15;1.17;;;;;;;;;;5097418;28;20258;-61
2022/07/12 11:41:12;;;;;;;1.95;1.15;;;;;;;;;;5097120;28;20260;-61
2022/07/12 11:43:42;;;;;;;7.60;1.27;;;;;;;;;;5098362;28;20276;-61
2022/07/12 11:46:10;;;;;;;3.67;1.23;;;;;;;;;;5097069;28;20268;-61
2022/07/12 11:48:39;;;;;;;2.88;1.98;;;;;;;;;;5097234;28;20289;-61
2022/07/12 11:51:07;;;;;;;1.38;1.10;;;;;;;;;;5101130;28;20261;-61
2022/07/12 11:53:36;;;;;;;1.83;1.10;;;;;;;;;;5101102;28;20231;-61
2022/07/12 11:56:04;;;;;;;3.05;1.10;;;;;;;;;;5100741;28;20659;-61
2022/07/12 11:58:34;;;;;;;1.75;1.00;;;;;;;;;;5100652;28;20212;-61
2022/07/12 12:01:04;;;;;;;1.33;1.00;;;;;;;;;;5100933;28;20613;-61
2022/07/12 12:03:32;;;;;;;2.03;1.23;;;;;;;;;;5098473;28;20222;-61
2022/07/12 12:06:03;;;;;;;1.53;0.97;;;;;;;;;;5100688;28;20249;-61
2022/07/12 12:08:31;;;;;;;3.60;1.20;;;;;;;;;;5100563;28;20313;-61
2022/07/12 12:11:00;;;;;;;1.35;1.15;;;;;;;;;;5100395;28;20207;-61
2022/07/12 12:13:29;;;;;;;1.38;1.20;;;;;;;;;;5100801;28;20231;-61
2022/07/12 12:15:57;;;;;;;1.83;1.10;;;;;;;;;;5100557;28;20230;-61
2022/07/12 12:18:31;;;;;;;1.20;1.08;;;;;;;;;;5100686;28;20209;-61
2022/07/12 12:21:00;;;;;;;0.77;0.77;;;;;;;;;;5091818;28;20203;-61
2022/07/12 12:23:28;;;;;;;1.95;0.90;;;;;;;;;;5100249;28;20596;-61
2022/07/12 12:26:13;;;;;;;1.73;0.80;;;;;;;;;;5100218;28;20560;-61
2022/07/12 12:28:44;;;;;;;1.17;1.08;;;;;;;;;;5100647;28;20207;-61
2022/07/12 12:31:13;;;;;;;1.15;1.00;;;;;;;;;;5120669;28;20622;-61
2022/07/12 12:33:43;;;;;;;0.95;0.57;;;;;;;;;;5118623;28;20275;-60
2022/07/12 12:36:12;;;;;;;1.00;0.77;;;;;;;;;;5092932;28;20219;-61
2022/07/12 12:38:42;;;;;;;1.63;1.00;;;;;;;;;;5095066;28;20215;-61
2022/07/12 12:41:10;;;;;;;0.77;0.77;;;;;;;;;;5099930;28;20202;-61
2022/07/12 12:43:38;;;;;;;0.88;0.88;;;;;;;;;;5099856;28;20257;-61
2022/07/12 12:46:06;;;;;;;1.80;1.10;;;;;;;;;;5100154;28;20257;-61
2022/07/12 12:48:35;;;;;;;2.97;0.70;;;;;;;;;;5099609;28;20693;-61
2022/07/12 12:51:05;;;;;;;1.23;0.88;;;;;;;;;;5100079;28;20215;-61
2022/07/12 12:53:34;;;;;;;0.90;0.90;;;;;;;;;;5099817;28;20591;-61
2022/07/12 12:56:02;;;;;;;1.00;0.73;;;;;;;;;;5098101;28;20758;-61
2022/07/12 12:58:31;;;;;;;3.00;0.93;;;;;;;;;;5100021;28;20206;-61
2022/07/12 13:00:59;;;;;;;0.70;0.70;;;;;;;;;;5099795;28;20209;-61
2022/07/12 13:03:27;;;;;;;2.13;0.98;;;;;;;;;;5099480;28;20286;-61
2022/07/12 13:05:55;;;;;;;0.80;0.80;;;;;;;;;;5099909;28;20233;-61
2022/07/12 13:08:25;;;;;;;0.80;0.80;;;;;;;;;;5099606;28;20647;-61
2022/07/12 13:13:35;;;;;;;0.80;0.80;;;;;;;;;;5087586;28;20228;-61
2022/07/12 13:16:02;;;;;;;4.65;1.10;;;;;;;;;;5099591;28;20325;-61
2022/07/12 13:18:31;;;;;;;2.65;0.80;;;;;;;;;;5099390;28;20242;-61
2022/07/12 13:20:59;;;;;;;0.90;0.70;;;;;;;;;;5099605;28;20296;-61
2022/07/12 13:23:28;;;;;;;1.25;0.88;;;;;;;;;;5099268;28;20228;-61
2022/07/12 13:25:56;;;;;;;1.23;0.70;;;;;;;;;;5099020;28;20611;-61
2022/07/12 13:28:24;;;;;;;0.70;0.70;;;;;;;;;;5093217;28;20622;-61
2022/07/12 13:30:54;;;;;;;0.95;0.75;;;;;;;;;;5097062;28;20639;-61
2022/07/12 13:33:23;;;;;;;2.50;0.98;;;;;;;;;;5098880;28;20257;-61
2022/07/12 13:35:51;;;;;;;0.55;0.40;;;;;;;;;;5094091;28;20256;-61
2022/07/12 13:38:19;;;;;;;1.73;0.85;;;;;;;;;;5091145;28;20615;-61
2022/07/12 13:40:49;;;;;;;0.63;0.63;;;;;;;;;;5098698;28;20206;-61
2022/07/12 13:43:17;;;;;;;0.80;0.52;;;;;;;;;;5098971;28;20236;-61
2022/07/12 13:45:45;;;;;;;2.08;0.60;;;;;;;;;;5096284;28;20233;-61
2022/07/12 13:48:13;;;;;;;0.55;0.55;;;;;;;;;;5098574;28;20205;-61
2022/07/12 13:50:41;;;;;;;1.13;0.68;;;;;;;;;;5098988;28;20230;-61
2022/07/12 13:53:21;;;;;;;1.00;0.70;;;;;;;;;;5099203;28;20217;-61
2022/07/12 13:55:50;;;;;;;0.50;0.50;;;;;;;;;;5103723;28;20734;-61
2022/07/12 13:58:18;;;;;;;0.98;0.70;;;;;;;;;;5107266;28;20292;-61
2022/07/12 14:00:46;;;;;;;0.50;0.50;;;;;;;;;;5108427;28;20205;-60
2022/07/12 14:03:14;;;;;;;0.60;0.60;;;;;;;;;;5093590;28;20217;-60
2022/07/12 14:05:42;;;;;;;0.90;0.70;;;;;;;;;;5099383;28;20243;-60
2022/07/12 14:08:10;;;;;;;0.65;0.55;;;;;;;;;;5103517;28;20254;-60
2022/07/12 14:10:38;;;;;;;0.50;0.50;;;;;;;;;;5107949;28;20227;-61
2022/07/12 14:13:08;;;;;;;2.35;0.63;;;;;;;;;;5096259;28;20260;-60
2022/07/12 14:15:40;;;;;;;1.58;0.70;;;;;;;;;;5097702;28;20254;-62
2022/07/12 14:18:08;;;;;;;2.63;0.50;;;;;;;;;;5099059;28;20197;-61
2022/07/12 14:20:36;;;;;;;0.90;0.90;;;;;;;;;;5099839;28;20205;-60
2022/07/12 14:23:06;;;;;;;1.15;0.77;;;;;;;;;;5101422;28;20634;-60
2022/07/12 14:25:34;;;;;;;1.45;0.60;;;;;;;;;;5101794;28;20197;-60
2022/07/12 14:28:02;;;;;;;0.90;0.57;;;;;;;;;;5097313;28;20205;-61
2022/07/12 14:30:32;;;;;;;1.35;0.60;;;;;;;;;;5097961;28;20201;-61
2022/07/12 14:33:00;;;;;;;1.73;1.17;;;;;;;;;;5096637;28;20205;-61
2022/07/12 14:35:28;;;;;;;0.47;0.47;;;;;;;;;;5096143;28;20205;-61
2022/07/12 14:37:56;;;;;;;0.60;0.60;;;;;;;;;;5095836;28;20256;-61
2022/07/12 14:40:24;;;;;;;0.60;0.60;;;;;;;;;;5094720;28;20643;-61
2022/07/12 14:42:56;;;;;;;0.77;0.50;;;;;;;;;;5094627;28;20205;-61
2022/07/12 14:45:24;;;;;;;0.52;0.47;;;;;;;;;;5094701;28;20251;-61
2022/07/12 14:47:54;;;;;;;1.88;0.60;;;;;;;;;;5095051;28;20646;-61
2022/07/12 14:50:22;;;;;;;0.73;0.73;;;;;;;;;;5095718;28;20264;-61
2022/07/12 14:52:50;;;;;;;0.65;0.60;;;;;;;;;;5095834;28;20228;-61
2022/07/12 14:55:18;;;;;;;0.50;0.50;;;;;;;;;;5096228;28;20213;-61
2022/07/12 14:57:46;;;;;;;1.08;0.50;;;;;;;;;;5097885;28;20251;-61
2022/07/12 15:00:14;;;;;;;0.80;0.80;;;;;;;;;;5098035;28;20202;-61
2022/07/12 15:02:42;;;;;;;0.80;0.80;;;;;;;;;;5097648;28;20216;-61
2022/07/12 15:05:19;;;;;;;0.80;0.80;;;;;;;;;;5098100;28;20208;-60
2022/07/12 15:07:47;;;;;;;0.60;0.60;;;;;;;;;;5097864;28;20232;-61